17TE weather

Comfort Airpark
Comfort, Texas, United States

Public forecast

Using degrees Fahrenheit for public forecast. Weather courtesy of forecast.io.

Closest aviation weather report (METAR) to Comfort Airpark

Closest report is Kerrville Municipal Louis Schreiner Field, 8.1 nm (15.0 km) WNW. Retrieved 2019/12/08 10:35 UTC (0 seconds ago):

KERV 081035Z AUTO 00000KT 10SM CLR 09/08 A3006 RMK AO2 T00920076

Closest aviation forecast (TAF) to Comfort Airpark

Closest forecast is San Antonio International Airport, 34.1 nm (63.2 km) SE. Retrieved 2019/12/08 06:22 UTC (4 hours ago):

TAF KSAT 080520Z 0806/0912 00000KT P6SM FEW250 FM081000 19005KT 4SM BR SCT007 FM081300 18007KT 6SM BR OVC009 FM081700 18012KT P6SM BKN018 FM090000 18012KT P6SM SCT025 BKN250 FM090900 21004KT 5SM BR OVC015